Terminal Aerodrome Forecast
Issued by NWS Goodland, KS

Home | Current Version | Previous Version | Text Only | Print | Product List | Glossary On
Versions: 1 2 3 4 5 6 7 8 9 10 11 12
000
FTUS43 KGLD 212320
TAFGLD
TAF
KGLD 212320Z 2200/2224 02007KT P6SM VCSH FEW040 SCT200
     FM220300 05008KT P6SM SCT200
     FM221600 11010KT P6SM SCT050 SCT200
     FM222000 14010KT P6SM VCSH SCT050=

USA.gov is the U.S. government's official web portal to all federal, state and local government web resources and services.